sensor_id;sensor_type;location;lat;lon;timestamp;P1;durP1;ratioP1;P2;durP2;ratioP2
40204;SDS011;26963;42.666;23.366;2023-04-15T00:00:53;4.82;;;2.33;;
40204;SDS011;26963;42.666;23.366;2023-04-15T00:03:19;4.88;;;2.25;;
40204;SDS011;26963;42.666;23.366;2023-04-15T00:05:44;6.53;;;2.20;;
40204;SDS011;26963;42.666;23.366;2023-04-15T00:08:10;4.65;;;2.33;;
40204;SDS011;26963;42.666;23.366;2023-04-15T00:10:37;7.68;;;4.40;;
40204;SDS011;26963;42.666;23.366;2023-04-15T00:13:02;4.38;;;2.40;;
40204;SDS011;26963;42.666;23.366;2023-04-15T00:15:28;5.22;;;2.70;;
40204;SDS011;26963;42.666;23.366;2023-04-15T00:17:54;5.38;;;2.58;;
40204;SDS011;26963;42.666;23.366;2023-04-15T00:20:19;7.15;;;3.08;;
40204;SDS011;26963;42.666;23.366;2023-04-15T00:22:58;5.07;;;2.63;;
40204;SDS011;26963;42.666;23.366;2023-04-15T00:25:24;4.93;;;2.40;;
40204;SDS011;26963;42.666;23.366;2023-04-15T00:27:50;6.55;;;2.90;;
40204;SDS011;26963;42.666;23.366;2023-04-15T00:30:16;4.93;;;2.70;;
40204;SDS011;26963;42.666;23.366;2023-04-15T00:32:41;6.32;;;2.95;;
40204;SDS011;26963;42.666;23.366;2023-04-15T00:35:07;3.78;;;2.45;;
40204;SDS011;26963;42.666;23.366;2023-04-15T00:37:33;4.57;;;2.60;;
40204;SDS011;26963;42.666;23.366;2023-04-15T00:39:59;6.10;;;2.42;;
40204;SDS011;26963;42.666;23.366;2023-04-15T00:42:25;5.07;;;2.75;;
40204;SDS011;26963;42.666;23.366;2023-04-15T00:44:52;6.22;;;2.72;;
40204;SDS011;26963;42.666;23.366;2023-04-15T00:47:17;6.97;;;2.90;;
40204;SDS011;26963;42.666;23.366;2023-04-15T00:49:43;5.72;;;2.92;;
40204;SDS011;26963;42.666;23.366;2023-04-15T00:52:09;5.32;;;2.80;;
40204;SDS011;26963;42.666;23.366;2023-04-15T00:54:34;5.03;;;2.80;;
40204;SDS011;26963;42.666;23.366;2023-04-15T00:57:00;5.20;;;2.92;;
40204;SDS011;26963;42.666;23.366;2023-04-15T00:59:26;5.43;;;2.97;;
40204;SDS011;26963;42.666;23.366;2023-04-15T01:01:51;6.45;;;3.78;;
40204;SDS011;26963;42.666;23.366;2023-04-15T01:04:17;7.72;;;3.80;;
40204;SDS011;26963;42.666;23.366;2023-04-15T01:06:43;8.52;;;3.88;;
40204;SDS011;26963;42.666;23.366;2023-04-15T01:09:08;6.82;;;3.67;;
40204;SDS011;26963;42.666;23.366;2023-04-15T01:11:35;8.80;;;4.15;;
40204;SDS011;26963;42.666;23.366;2023-04-15T01:14:00;9.00;;;4.35;;
40204;SDS011;26963;42.666;23.366;2023-04-15T01:16:30;8.73;;;4.85;;
40204;SDS011;26963;42.666;23.366;2023-04-15T01:18:56;8.73;;;4.32;;
40204;SDS011;26963;42.666;23.366;2023-04-15T01:21:22;9.90;;;4.82;;
40204;SDS011;26963;42.666;23.366;2023-04-15T01:23:47;8.05;;;4.65;;
40204;SDS011;26963;42.666;23.366;2023-04-15T01:26:13;6.85;;;4.07;;
40204;SDS011;26963;42.666;23.366;2023-04-15T01:28:40;8.98;;;4.63;;
40204;SDS011;26963;42.666;23.366;2023-04-15T01:31:10;8.15;;;4.72;;
40204;SDS011;26963;42.666;23.366;2023-04-15T01:33:38;9.48;;;4.50;;
40204;SDS011;26963;42.666;23.366;2023-04-15T01:36:05;7.90;;;3.85;;
40204;SDS011;26963;42.666;23.366;2023-04-15T01:38:32;5.93;;;3.50;;
40204;SDS011;26963;42.666;23.366;2023-04-15T01:40:58;5.10;;;2.90;;
40204;SDS011;26963;42.666;23.366;2023-04-15T01:43:25;6.32;;;3.13;;
40204;SDS011;26963;42.666;23.366;2023-04-15T01:45:50;4.82;;;3.00;;
40204;SDS011;26963;42.666;23.366;2023-04-15T01:48:16;4.85;;;2.97;;
40204;SDS011;26963;42.666;23.366;2023-04-15T01:50:42;4.90;;;2.90;;
40204;SDS011;26963;42.666;23.366;2023-04-15T01:53:08;5.53;;;3.17;;
40204;SDS011;26963;42.666;23.366;2023-04-15T01:55:33;5.82;;;3.00;;
40204;SDS011;26963;42.666;23.366;2023-04-15T01:57:59;4.35;;;2.88;;
40204;SDS011;26963;42.666;23.366;2023-04-15T02:00:25;7.03;;;3.05;;
40204;SDS011;26963;42.666;23.366;2023-04-15T02:02:51;6.68;;;3.28;;
40204;SDS011;26963;42.666;23.366;2023-04-15T02:05:17;8.32;;;3.30;;
40204;SDS011;26963;42.666;23.366;2023-04-15T02:07:42;6.28;;;3.40;;
40204;SDS011;26963;42.666;23.366;2023-04-15T02:10:08;7.90;;;3.78;;
40204;SDS011;26963;42.666;23.366;2023-04-15T02:12:34;7.10;;;3.97;;
40204;SDS011;26963;42.666;23.366;2023-04-15T02:15:00;5.70;;;3.17;;
40204;SDS011;26963;42.666;23.366;2023-04-15T02:17:26;8.18;;;3.05;;
40204;SDS011;26963;42.666;23.366;2023-04-15T02:19:51;7.07;;;3.42;;
40204;SDS011;26963;42.666;23.366;2023-04-15T02:22:17;6.32;;;3.13;;
40204;SDS011;26963;42.666;23.366;2023-04-15T02:24:42;7.22;;;3.10;;
40204;SDS011;26963;42.666;23.366;2023-04-15T02:27:10;7.63;;;3.50;;
40204;SDS011;26963;42.666;23.366;2023-04-15T02:29:39;4.57;;;2.83;;
40204;SDS011;26963;42.666;23.366;2023-04-15T02:32:05;6.88;;;3.10;;
40204;SDS011;26963;42.666;23.366;2023-04-15T02:34:31;6.13;;;3.13;;
40204;SDS011;26963;42.666;23.366;2023-04-15T02:36:57;7.65;;;3.20;;
40204;SDS011;26963;42.666;23.366;2023-04-15T02:39:23;5.03;;;3.25;;
40204;SDS011;26963;42.666;23.366;2023-04-15T02:41:49;6.53;;;3.25;;
40204;SDS011;26963;42.666;23.366;2023-04-15T02:44:17;7.45;;;3.13;;
40204;SDS011;26963;42.666;23.366;2023-04-15T02:46:44;5.93;;;3.13;;
40204;SDS011;26963;42.666;23.366;2023-04-15T02:49:16;5.32;;;3.10;;
40204;SDS011;26963;42.666;23.366;2023-04-15T02:51:42;7.90;;;3.30;;
40204;SDS011;26963;42.666;23.366;2023-04-15T02:54:09;6.05;;;3.28;;
40204;SDS011;26963;42.666;23.366;2023-04-15T02:56:34;8.15;;;3.47;;
40204;SDS011;26963;42.666;23.366;2023-04-15T02:59:00;4.70;;;2.80;;
40204;SDS011;26963;42.666;23.366;2023-04-15T03:01:25;6.55;;;4.00;;
40204;SDS011;26963;42.666;23.366;2023-04-15T03:03:51;6.85;;;3.92;;
40204;SDS011;26963;42.666;23.366;2023-04-15T03:06:17;7.35;;;4.40;;
40204;SDS011;26963;42.666;23.366;2023-04-15T03:08:42;9.82;;;5.13;;
40204;SDS011;26963;42.666;23.366;2023-04-15T03:11:08;10.98;;;5.93;;
40204;SDS011;26963;42.666;23.366;2023-04-15T03:13:33;8.88;;;5.47;;
40204;SDS011;26963;42.666;23.366;2023-04-15T03:15:59;8.52;;;5.60;;
40204;SDS011;26963;42.666;23.366;2023-04-15T03:18:24;8.60;;;4.80;;
40204;SDS011;26963;42.666;23.366;2023-04-15T03:20:50;9.38;;;5.47;;
40204;SDS011;26963;42.666;23.366;2023-04-15T03:23:15;8.60;;;5.30;;
40204;SDS011;26963;42.666;23.366;2023-04-15T03:25:41;10.68;;;5.00;;
40204;SDS011;26963;42.666;23.366;2023-04-15T03:28:07;9.70;;;5.65;;
40204;SDS011;26963;42.666;23.366;2023-04-15T03:30:32;9.50;;;5.05;;
40204;SDS011;26963;42.666;23.366;2023-04-15T03:32:58;7.25;;;5.13;;
40204;SDS011;26963;42.666;23.366;2023-04-15T03:35:23;7.28;;;4.85;;
40204;SDS011;26963;42.666;23.366;2023-04-15T03:37:49;7.30;;;4.70;;
40204;SDS011;26963;42.666;23.366;2023-04-15T03:40:15;7.90;;;5.03;;
40204;SDS011;26963;42.666;23.366;2023-04-15T03:42:40;8.18;;;5.32;;
40204;SDS011;26963;42.666;23.366;2023-04-15T03:45:06;7.88;;;4.95;;
40204;SDS011;26963;42.666;23.366;2023-04-15T03:47:32;7.35;;;4.70;;
40204;SDS011;26963;42.666;23.366;2023-04-15T03:50:00;9.23;;;4.88;;
40204;SDS011;26963;42.666;23.366;2023-04-15T03:52:26;8.68;;;4.80;;
40204;SDS011;26963;42.666;23.366;2023-04-15T03:54:51;7.30;;;4.93;;
40204;SDS011;26963;42.666;23.366;2023-04-15T03:57:17;8.32;;;4.85;;
40204;SDS011;26963;42.666;23.366;2023-04-15T03:59:42;8.48;;;5.00;;
40204;SDS011;26963;42.666;23.366;2023-04-15T04:02:08;8.10;;;5.03;;
40204;SDS011;26963;42.666;23.366;2023-04-15T04:04:33;7.97;;;4.93;;
40204;SDS011;26963;42.666;23.366;2023-04-15T04:06:59;9.10;;;5.22;;
40204;SDS011;26963;42.666;23.366;2023-04-15T04:09:24;7.50;;;4.90;;
40204;SDS011;26963;42.666;23.366;2023-04-15T04:11:50;8.00;;;4.72;;
40204;SDS011;26963;42.666;23.366;2023-04-15T04:14:16;9.60;;;4.93;;
40204;SDS011;26963;42.666;23.366;2023-04-15T04:16:41;8.65;;;4.93;;
40204;SDS011;26963;42.666;23.366;2023-04-15T04:19:07;10.35;;;5.47;;
40204;SDS011;26963;42.666;23.366;2023-04-15T04:21:32;7.78;;;5.03;;
40204;SDS011;26963;42.666;23.366;2023-04-15T04:23:58;7.47;;;4.65;;
40204;SDS011;26963;42.666;23.366;2023-04-15T04:26:24;9.57;;;5.18;;
40204;SDS011;26963;42.666;23.366;2023-04-15T04:28:50;9.45;;;5.53;;
40204;SDS011;26963;42.666;23.366;2023-04-15T04:31:15;9.23;;;5.80;;
40204;SDS011;26963;42.666;23.366;2023-04-15T04:33:41;8.07;;;5.70;;
40204;SDS011;26963;42.666;23.366;2023-04-15T04:36:06;8.70;;;5.63;;
40204;SDS011;26963;42.666;23.366;2023-04-15T04:38:32;9.43;;;5.97;;
40204;SDS011;26963;42.666;23.366;2023-04-15T04:41:00;8.68;;;5.85;;
40204;SDS011;26963;42.666;23.366;2023-04-15T04:43:26;8.38;;;6.07;;
40204;SDS011;26963;42.666;23.366;2023-04-15T04:45:51;9.32;;;6.47;;
40204;SDS011;26963;42.666;23.366;2023-04-15T04:48:17;8.40;;;5.78;;
40204;SDS011;26963;42.666;23.366;2023-04-15T04:50:43;11.43;;;6.47;;
40204;SDS011;26963;42.666;23.366;2023-04-15T04:53:09;11.38;;;5.95;;
40204;SDS011;26963;42.666;23.366;2023-04-15T04:55:35;11.05;;;7.35;;
40204;SDS011;26963;42.666;23.366;2023-04-15T04:58:01;10.20;;;6.45;;
40204;SDS011;26963;42.666;23.366;2023-04-15T05:00:33;10.30;;;6.95;;
40204;SDS011;26963;42.666;23.366;2023-04-15T05:02:58;10.85;;;7.43;;
40204;SDS011;26963;42.666;23.366;2023-04-15T05:05:24;10.25;;;7.22;;
40204;SDS011;26963;42.666;23.366;2023-04-15T05:07:50;12.43;;;8.38;;
40204;SDS011;26963;42.666;23.366;2023-04-15T05:10:16;9.88;;;6.95;;
40204;SDS011;26963;42.666;23.366;2023-04-15T05:12:42;11.60;;;8.10;;
40204;SDS011;26963;42.666;23.366;2023-04-15T05:15:08;9.00;;;6.68;;
40204;SDS011;26963;42.666;23.366;2023-04-15T05:17:34;11.40;;;6.68;;
40204;SDS011;26963;42.666;23.366;2023-04-15T05:20:00;9.70;;;6.85;;
40204;SDS011;26963;42.666;23.366;2023-04-15T05:22:26;14.70;;;6.93;;
40204;SDS011;26963;42.666;23.366;2023-04-15T05:24:52;11.50;;;7.20;;
40204;SDS011;26963;42.666;23.366;2023-04-15T05:27:18;11.80;;;6.93;;
40204;SDS011;26963;42.666;23.366;2023-04-15T05:29:43;10.70;;;7.45;;
40204;SDS011;26963;42.666;23.366;2023-04-15T05:32:09;10.35;;;7.20;;
40204;SDS011;26963;42.666;23.366;2023-04-15T05:34:35;9.75;;;6.57;;
40204;SDS011;26963;42.666;23.366;2023-04-15T05:37:00;11.48;;;8.10;;
40204;SDS011;26963;42.666;23.366;2023-04-15T05:39:26;9.80;;;6.07;;
40204;SDS011;26963;42.666;23.366;2023-04-15T05:41:52;8.40;;;4.65;;
40204;SDS011;26963;42.666;23.366;2023-04-15T05:44:17;7.13;;;5.03;;
40204;SDS011;26963;42.666;23.366;2023-04-15T05:46:43;7.10;;;4.22;;
40204;SDS011;26963;42.666;23.366;2023-04-15T05:49:08;7.68;;;4.40;;
40204;SDS011;26963;42.666;23.366;2023-04-15T05:51:34;6.47;;;4.68;;
40204;SDS011;26963;42.666;23.366;2023-04-15T05:54:00;9.93;;;6.00;;
40204;SDS011;26963;42.666;23.366;2023-04-15T05:56:29;7.70;;;4.68;;
40204;SDS011;26963;42.666;23.366;2023-04-15T05:58:54;7.88;;;4.72;;
40204;SDS011;26963;42.666;23.366;2023-04-15T06:01:20;7.07;;;5.22;;
40204;SDS011;26963;42.666;23.366;2023-04-15T06:03:46;8.75;;;5.55;;
40204;SDS011;26963;42.666;23.366;2023-04-15T06:06:12;8.90;;;5.57;;
40204;SDS011;26963;42.666;23.366;2023-04-15T06:08:39;12.00;;;5.22;;
40204;SDS011;26963;42.666;23.366;2023-04-15T06:11:05;7.78;;;5.47;;
40204;SDS011;26963;42.666;23.366;2023-04-15T06:13:31;9.63;;;5.43;;
40204;SDS011;26963;42.666;23.366;2023-04-15T06:16:00;8.95;;;4.22;;
40204;SDS011;26963;42.666;23.366;2023-04-15T06:18:25;7.43;;;4.22;;
40204;SDS011;26963;42.666;23.366;2023-04-15T06:20:51;9.55;;;4.03;;
40204;SDS011;26963;42.666;23.366;2023-04-15T06:23:16;9.35;;;5.38;;
40204;SDS011;26963;42.666;23.366;2023-04-15T06:25:42;7.45;;;4.50;;
40204;SDS011;26963;42.666;23.366;2023-04-15T06:28:07;10.52;;;4.80;;
40204;SDS011;26963;42.666;23.366;2023-04-15T06:30:33;8.88;;;4.50;;
40204;SDS011;26963;42.666;23.366;2023-04-15T06:33:00;9.13;;;4.75;;
40204;SDS011;26963;42.666;23.366;2023-04-15T06:35:25;12.65;;;7.60;;
40204;SDS011;26963;42.666;23.366;2023-04-15T06:37:51;7.40;;;4.47;;
40204;SDS011;26963;42.666;23.366;2023-04-15T06:40:17;8.27;;;4.43;;
40204;SDS011;26963;42.666;23.366;2023-04-15T06:42:42;8.07;;;5.70;;
40204;SDS011;26963;42.666;23.366;2023-04-15T06:45:08;9.10;;;5.45;;
40204;SDS011;26963;42.666;23.366;2023-04-15T06:47:34;6.53;;;4.50;;
40204;SDS011;26963;42.666;23.366;2023-04-15T06:49:59;7.07;;;4.43;;
40204;SDS011;26963;42.666;23.366;2023-04-15T06:52:25;6.95;;;4.40;;
40204;SDS011;26963;42.666;23.366;2023-04-15T06:54:50;10.73;;;4.40;;
40204;SDS011;26963;42.666;23.366;2023-04-15T06:57:16;6.72;;;3.95;;
40204;SDS011;26963;42.666;23.366;2023-04-15T06:59:41;6.85;;;3.88;;
40204;SDS011;26963;42.666;23.366;2023-04-15T07:02:07;27.83;;;13.95;;
40204;SDS011;26963;42.666;23.366;2023-04-15T07:04:37;12.50;;;7.85;;
40204;SDS011;26963;42.666;23.366;2023-04-15T07:07:08;11.35;;;7.10;;
40204;SDS011;26963;42.666;23.366;2023-04-15T07:09:34;12.70;;;7.90;;
40204;SDS011;26963;42.666;23.366;2023-04-15T07:11:59;8.73;;;4.57;;
40204;SDS011;26963;42.666;23.366;2023-04-15T07:14:25;11.70;;;4.70;;
40204;SDS011;26963;42.666;23.366;2023-04-15T07:16:51;10.10;;;7.07;;
40204;SDS011;26963;42.666;23.366;2023-04-15T07:19:17;6.97;;;4.22;;
40204;SDS011;26963;42.666;23.366;2023-04-15T07:21:42;10.25;;;3.85;;
40204;SDS011;26963;42.666;23.366;2023-04-15T07:24:08;6.63;;;3.85;;
40204;SDS011;26963;42.666;23.366;2023-04-15T07:26:34;7.28;;;3.58;;
40204;SDS011;26963;42.666;23.366;2023-04-15T07:29:00;8.50;;;4.10;;
40204;SDS011;26963;42.666;23.366;2023-04-15T07:31:25;7.13;;;3.58;;
40204;SDS011;26963;42.666;23.366;2023-04-15T07:33:51;8.00;;;3.35;;
40204;SDS011;26963;42.666;23.366;2023-04-15T07:36:17;8.50;;;3.42;;
40204;SDS011;26963;42.666;23.366;2023-04-15T07:38:43;8.43;;;3.20;;
40204;SDS011;26963;42.666;23.366;2023-04-15T07:41:08;8.73;;;3.50;;
40204;SDS011;26963;42.666;23.366;2023-04-15T07:43:34;7.88;;;3.50;;
40204;SDS011;26963;42.666;23.366;2023-04-15T07:46:00;10.27;;;3.90;;
40204;SDS011;26963;42.666;23.366;2023-04-15T07:48:25;9.05;;;3.50;;
40204;SDS011;26963;42.666;23.366;2023-04-15T07:50:53;9.27;;;3.60;;
40204;SDS011;26963;42.666;23.366;2023-04-15T07:53:19;5.72;;;2.70;;
40204;SDS011;26963;42.666;23.366;2023-04-15T07:55:45;9.73;;;4.72;;
40204;SDS011;26963;42.666;23.366;2023-04-15T07:58:10;7.07;;;3.70;;
40204;SDS011;26963;42.666;23.366;2023-04-15T08:00:36;6.70;;;4.80;;
40204;SDS011;26963;42.666;23.366;2023-04-15T08:03:02;9.68;;;4.00;;
40204;SDS011;26963;42.666;23.366;2023-04-15T08:05:28;7.75;;;3.50;;
40204;SDS011;26963;42.666;23.366;2023-04-15T08:07:53;8.13;;;3.92;;
40204;SDS011;26963;42.666;23.366;2023-04-15T08:10:19;9.02;;;4.20;;
40204;SDS011;26963;42.666;23.366;2023-04-15T08:12:44;7.18;;;3.53;;
40204;SDS011;26963;42.666;23.366;2023-04-15T08:15:13;6.95;;;3.70;;
40204;SDS011;26963;42.666;23.366;2023-04-15T08:17:39;6.28;;;3.55;;
40204;SDS011;26963;42.666;23.366;2023-04-15T08:20:04;6.45;;;3.45;;
40204;SDS011;26963;42.666;23.366;2023-04-15T08:22:31;4.80;;;3.15;;
40204;SDS011;26963;42.666;23.366;2023-04-15T08:24:56;10.02;;;3.50;;
40204;SDS011;26963;42.666;23.366;2023-04-15T08:27:25;5.45;;;3.03;;
40204;SDS011;26963;42.666;23.366;2023-04-15T08:29:50;7.07;;;3.30;;
40204;SDS011;26963;42.666;23.366;2023-04-15T08:32:16;5.22;;;3.67;;
40204;SDS011;26963;42.666;23.366;2023-04-15T08:34:41;9.57;;;3.53;;
40204;SDS011;26963;42.666;23.366;2023-04-15T08:37:07;7.90;;;4.28;;
40204;SDS011;26963;42.666;23.366;2023-04-15T08:39:32;4.78;;;3.00;;
40204;SDS011;26963;42.666;23.366;2023-04-15T08:41:59;5.93;;;3.05;;
40204;SDS011;26963;42.666;23.366;2023-04-15T08:44:28;5.68;;;2.63;;
40204;SDS011;26963;42.666;23.366;2023-04-15T08:46:55;6.45;;;2.60;;
40204;SDS011;26963;42.666;23.366;2023-04-15T08:49:25;7.85;;;3.08;;
40204;SDS011;26963;42.666;23.366;2023-04-15T08:51:57;12.50;;;8.85;;
40204;SDS011;26963;42.666;23.366;2023-04-15T08:54:26;8.13;;;5.82;;
40204;SDS011;26963;42.666;23.366;2023-04-15T08:56:56;6.30;;;3.38;;
40204;SDS011;26963;42.666;23.366;2023-04-15T08:59:26;8.15;;;4.15;;
40204;SDS011;26963;42.666;23.366;2023-04-15T09:01:54;5.82;;;3.35;;
40204;SDS011;26963;42.666;23.366;2023-04-15T09:04:21;6.72;;;3.70;;
40204;SDS011;26963;42.666;23.366;2023-04-15T09:06:46;3.80;;;2.60;;
40204;SDS011;26963;42.666;23.366;2023-04-15T09:09:12;7.20;;;3.88;;
40204;SDS011;26963;42.666;23.366;2023-04-15T09:11:38;5.90;;;2.03;;
40204;SDS011;26963;42.666;23.366;2023-04-15T09:14:04;4.03;;;1.60;;
40204;SDS011;26963;42.666;23.366;2023-04-15T09:16:30;5.50;;;2.33;;
40204;SDS011;26963;42.666;23.366;2023-04-15T09:18:55;4.50;;;1.77;;
40204;SDS011;26963;42.666;23.366;2023-04-15T09:21:21;4.65;;;2.00;;
40204;SDS011;26963;42.666;23.366;2023-04-15T09:23:55;4.72;;;1.75;;
40204;SDS011;26963;42.666;23.366;2023-04-15T09:26:32;4.45;;;1.90;;
40204;SDS011;26963;42.666;23.366;2023-04-15T09:29:05;4.40;;;1.80;;
40204;SDS011;26963;42.666;23.366;2023-04-15T09:31:35;3.38;;;1.60;;
40204;SDS011;26963;42.666;23.366;2023-04-15T09:34:01;2.08;;;1.40;;
40204;SDS011;26963;42.666;23.366;2023-04-15T09:39:11;3.60;;;1.50;;
40204;SDS011;26963;42.666;23.366;2023-04-15T09:41:38;2.90;;;1.30;;
40204;SDS011;26963;42.666;23.366;2023-04-15T09:44:04;4.60;;;1.48;;
40204;SDS011;26963;42.666;23.366;2023-04-15T09:46:40;3.90;;;1.58;;
40204;SDS011;26963;42.666;23.366;2023-04-15T09:49:09;5.13;;;1.50;;
40204;SDS011;26963;42.666;23.366;2023-04-15T09:51:36;5.25;;;1.48;;
40204;SDS011;26963;42.666;23.366;2023-04-15T09:54:02;3.30;;;1.50;;
40204;SDS011;26963;42.666;23.366;2023-04-15T09:56:35;3.60;;;1.40;;
40204;SDS011;26963;42.666;23.366;2023-04-15T09:59:05;6.03;;;1.55;;
40204;SDS011;26963;42.666;23.366;2023-04-15T10:01:31;2.92;;;1.50;;
40204;SDS011;26963;42.666;23.366;2023-04-15T10:04:04;3.28;;;1.23;;
40204;SDS011;26963;42.666;23.366;2023-04-15T10:06:30;3.15;;;1.63;;
40204;SDS011;26963;42.666;23.366;2023-04-15T10:08:59;5.28;;;1.20;;
40204;SDS011;26963;42.666;23.366;2023-04-15T10:11:30;4.03;;;1.40;;
40204;SDS011;26963;42.666;23.366;2023-04-15T10:13:56;3.30;;;1.42;;
40204;SDS011;26963;42.666;23.366;2023-04-15T10:16:26;3.78;;;1.40;;
40204;SDS011;26963;42.666;23.366;2023-04-15T10:18:55;10.00;;;6.90;;
40204;SDS011;26963;42.666;23.366;2023-04-15T10:21:23;3.95;;;1.90;;
40204;SDS011;26963;42.666;23.366;2023-04-15T10:23:49;4.32;;;2.28;;
40204;SDS011;26963;42.666;23.366;2023-04-15T10:26:15;3.53;;;1.63;;
40204;SDS011;26963;42.666;23.366;2023-04-15T10:28:45;4.43;;;1.50;;
40204;SDS011;26963;42.666;23.366;2023-04-15T10:31:14;2.55;;;1.50;;
40204;SDS011;26963;42.666;23.366;2023-04-15T10:33:41;2.90;;;1.50;;
40204;SDS011;26963;42.666;23.366;2023-04-15T10:36:08;2.70;;;1.20;;
40204;SDS011;26963;42.666;23.366;2023-04-15T10:38:36;2.45;;;1.27;;
40204;SDS011;26963;42.666;23.366;2023-04-15T10:41:19;2.88;;;1.40;;
40204;SDS011;26963;42.666;23.366;2023-04-15T10:46:23;4.00;;;1.33;;
40204;SDS011;26963;42.666;23.366;2023-04-15T10:49:10;2.63;;;1.30;;
40204;SDS011;26963;42.666;23.366;2023-04-15T10:51:49;3.63;;;1.27;;
40204;SDS011;26963;42.666;23.366;2023-04-15T10:54:29;3.53;;;1.48;;
40204;SDS011;26963;42.666;23.366;2023-04-15T11:02:40;4.28;;;1.50;;
40204;SDS011;26963;42.666;23.366;2023-04-15T11:08:06;4.90;;;1.48;;
40204;SDS011;26963;42.666;23.366;2023-04-15T11:17:59;4.38;;;1.88;;
40204;SDS011;26963;42.666;23.366;2023-04-15T11:20:32;2.38;;;1.38;;
40204;SDS011;26963;42.666;23.366;2023-04-15T11:22:58;5.07;;;1.70;;
40204;SDS011;26963;42.666;23.366;2023-04-15T11:25:25;2.60;;;1.50;;
40204;SDS011;26963;42.666;23.366;2023-04-15T11:27:55;4.80;;;1.60;;
40204;SDS011;26963;42.666;23.366;2023-04-15T11:30:22;2.97;;;1.52;;
40204;SDS011;26963;42.666;23.366;2023-04-15T11:32:49;5.32;;;1.60;;
40204;SDS011;26963;42.666;23.366;2023-04-15T11:35:16;2.97;;;1.45;;
40204;SDS011;26963;42.666;23.366;2023-04-15T11:37:43;5.18;;;2.53;;
40204;SDS011;26963;42.666;23.366;2023-04-15T11:40:13;7.65;;;4.70;;
40204;SDS011;26963;42.666;23.366;2023-04-15T11:42:41;6.28;;;4.00;;
40204;SDS011;26963;42.666;23.366;2023-04-15T11:45:12;5.43;;;2.70;;
40204;SDS011;26963;42.666;23.366;2023-04-15T11:47:39;3.65;;;1.27;;
40204;SDS011;26963;42.666;23.366;2023-04-15T11:50:15;2.28;;;1.20;;
40204;SDS011;26963;42.666;23.366;2023-04-15T11:52:55;3.17;;;1.33;;
40204;SDS011;26963;42.666;23.366;2023-04-15T11:55:24;3.80;;;1.55;;
40204;SDS011;26963;42.666;23.366;2023-04-15T11:58:04;3.08;;;1.45;;
40204;SDS011;26963;42.666;23.366;2023-04-15T12:00:32;3.15;;;1.50;;
40204;SDS011;26963;42.666;23.366;2023-04-15T12:09:11;2.92;;;1.33;;
40204;SDS011;26963;42.666;23.366;2023-04-15T12:11:29;4.20;;;1.53;;
40204;SDS011;26963;42.666;23.366;2023-04-15T12:16:32;4.78;;;1.63;;
40204;SDS011;26963;42.666;23.366;2023-04-15T12:18:59;3.47;;;1.27;;
40204;SDS011;26963;42.666;23.366;2023-04-15T12:21:26;1.95;;;1.10;;
40204;SDS011;26963;42.666;23.366;2023-04-15T12:24:04;5.25;;;1.50;;
40204;SDS011;26963;42.666;23.366;2023-04-15T12:26:36;2.08;;;1.20;;
40204;SDS011;26963;42.666;23.366;2023-04-15T12:29:07;4.88;;;1.20;;
40204;SDS011;26963;42.666;23.366;2023-04-15T12:31:33;2.10;;;1.02;;
40204;SDS011;26963;42.666;23.366;2023-04-15T12:34:01;3.25;;;1.00;;
40204;SDS011;26963;42.666;23.366;2023-04-15T12:36:30;3.80;;;1.10;;
40204;SDS011;26963;42.666;23.366;2023-04-15T12:39:00;3.42;;;1.02;;
40204;SDS011;26963;42.666;23.366;2023-04-15T12:41:29;2.70;;;1.27;;
40204;SDS011;26963;42.666;23.366;2023-04-15T12:43:55;2.38;;;1.33;;
40204;SDS011;26963;42.666;23.366;2023-04-15T12:46:21;1.92;;;1.17;;
40204;SDS011;26963;42.666;23.366;2023-04-15T12:48:47;2.60;;;0.95;;
40204;SDS011;26963;42.666;23.366;2023-04-15T12:51:13;3.10;;;1.30;;
40204;SDS011;26963;42.666;23.366;2023-04-15T12:53:38;2.67;;;1.20;;
40204;SDS011;26963;42.666;23.366;2023-04-15T12:56:04;3.22;;;1.00;;
40204;SDS011;26963;42.666;23.366;2023-04-15T12:58:30;3.75;;;1.20;;
40204;SDS011;26963;42.666;23.366;2023-04-15T13:00:56;2.35;;;1.20;;
40204;SDS011;26963;42.666;23.366;2023-04-15T13:03:22;3.35;;;0.90;;
40204;SDS011;26963;42.666;23.366;2023-04-15T13:05:47;3.45;;;1.30;;
40204;SDS011;26963;42.666;23.366;2023-04-15T13:08:13;2.70;;;1.02;;
40204;SDS011;26963;42.666;23.366;2023-04-15T13:10:38;1.75;;;0.82;;
40204;SDS011;26963;42.666;23.366;2023-04-15T13:13:06;2.40;;;1.23;;
40204;SDS011;26963;42.666;23.366;2023-04-15T13:15:32;3.03;;;1.08;;
40204;SDS011;26963;42.666;23.366;2023-04-15T13:17:58;2.65;;;0.90;;
40204;SDS011;26963;42.666;23.366;2023-04-15T13:20:24;4.03;;;1.00;;
40204;SDS011;26963;42.666;23.366;2023-04-15T13:22:51;2.40;;;1.27;;
40204;SDS011;26963;42.666;23.366;2023-04-15T13:25:17;2.58;;;0.98;;
40204;SDS011;26963;42.666;23.366;2023-04-15T13:27:43;2.67;;;1.05;;
40204;SDS011;26963;42.666;23.366;2023-04-15T13:30:09;2.95;;;1.20;;
40204;SDS011;26963;42.666;23.366;2023-04-15T13:32:34;4.00;;;2.38;;
40204;SDS011;26963;42.666;23.366;2023-04-15T13:35:00;3.80;;;1.38;;
40204;SDS011;26963;42.666;23.366;2023-04-15T13:37:26;2.33;;;1.33;;
40204;SDS011;26963;42.666;23.366;2023-04-15T13:39:55;1.83;;;1.00;;
40204;SDS011;26963;42.666;23.366;2023-04-15T13:42:21;2.58;;;1.30;;
40204;SDS011;26963;42.666;23.366;2023-04-15T13:44:51;3.35;;;1.20;;
40204;SDS011;26963;42.666;23.366;2023-04-15T13:47:17;3.85;;;1.10;;
40204;SDS011;26963;42.666;23.366;2023-04-15T13:49:44;1.88;;;1.00;;
40204;SDS011;26963;42.666;23.366;2023-04-15T13:52:10;1.50;;;1.00;;
40204;SDS011;26963;42.666;23.366;2023-04-15T13:54:36;1.73;;;0.70;;
40204;SDS011;26963;42.666;23.366;2023-04-15T13:57:01;2.38;;;0.90;;
40204;SDS011;26963;42.666;23.366;2023-04-15T13:59:30;3.45;;;1.05;;
40204;SDS011;26963;42.666;23.366;2023-04-15T14:01:56;3.35;;;1.30;;
40204;SDS011;26963;42.666;23.366;2023-04-15T14:04:25;2.60;;;1.23;;
40204;SDS011;26963;42.666;23.366;2023-04-15T14:06:51;2.70;;;1.10;;
40204;SDS011;26963;42.666;23.366;2023-04-15T14:09:16;2.28;;;0.93;;
40204;SDS011;26963;42.666;23.366;2023-04-15T14:11:42;3.28;;;1.00;;
40204;SDS011;26963;42.666;23.366;2023-04-15T14:14:08;1.15;;;0.93;;
40204;SDS011;26963;42.666;23.366;2023-04-15T14:16:33;1.90;;;1.00;;
40204;SDS011;26963;42.666;23.366;2023-04-15T14:19:00;1.55;;;0.77;;
40204;SDS011;26963;42.666;23.366;2023-04-15T14:21:26;4.40;;;1.00;;
40204;SDS011;26963;42.666;23.366;2023-04-15T14:23:53;2.85;;;1.05;;
40204;SDS011;26963;42.666;23.366;2023-04-15T14:26:19;2.95;;;1.20;;
40204;SDS011;26963;42.666;23.366;2023-04-15T14:28:44;2.33;;;1.00;;
40204;SDS011;26963;42.666;23.366;2023-04-15T14:31:10;2.90;;;1.10;;
40204;SDS011;26963;42.666;23.366;2023-04-15T14:33:36;3.25;;;1.13;;
40204;SDS011;26963;42.666;23.366;2023-04-15T14:36:02;3.63;;;1.83;;
40204;SDS011;26963;42.666;23.366;2023-04-15T14:38:32;3.40;;;1.90;;
40204;SDS011;26963;42.666;23.366;2023-04-15T14:41:05;4.05;;;2.35;;
40204;SDS011;26963;42.666;23.366;2023-04-15T14:43:32;3.25;;;1.15;;
40204;SDS011;26963;42.666;23.366;2023-04-15T14:46:01;4.13;;;2.03;;
40204;SDS011;26963;42.666;23.366;2023-04-15T14:48:27;3.13;;;1.48;;
40204;SDS011;26963;42.666;23.366;2023-04-15T14:50:55;3.05;;;1.77;;
40204;SDS011;26963;42.666;23.366;2023-04-15T14:53:21;2.88;;;1.30;;
40204;SDS011;26963;42.666;23.366;2023-04-15T14:55:46;1.63;;;0.90;;
40204;SDS011;26963;42.666;23.366;2023-04-15T14:58:12;4.53;;;1.40;;
40204;SDS011;26963;42.666;23.366;2023-04-15T15:00:38;2.30;;;1.08;;